地図

経路データ

SID SEASON NUMBER BASIN SUBBASIN NAME ISO_TIME NATURE LAT LON WMO_WIND WMO_PRES WMO_AGENCY TRACK_TYPE DIST2LAND LANDFALL IFLAG USA_AGENCY USA_ATCF_ID USA_LAT USA_LON USA_RECORD USA_STATUS USA_WIND USA_PRES USA_SSHS USA_R34_NE USA_R34_SE USA_R34_SW USA_R34_NW USA_R50_NE USA_R50_SE USA_R50_SW USA_R50_NW USA_R64_NE USA_R64_SE USA_R64_SW USA_R64_NW USA_POCI USA_ROCI USA_RMW USA_EYE TOKYO_LAT TOKYO_LON TOKYO_GRADE TOKYO_WIND TOKYO_PRES TOKYO_R50_DIR TOKYO_R50_LONG TOKYO_R50_SHORT TOKYO_R30_DIR TOKYO_R30_LONG TOKYO_R30_SHORT TOKYO_LAND CMA_LAT CMA_LON CMA_CAT CMA_WIND CMA_PRES HKO_LAT HKO_LON HKO_CAT HKO_WIND HKO_PRES NEWDELHI_LAT NEWDELHI_LON NEWDELHI_GRADE NEWDELHI_WIND NEWDELHI_PRES NEWDELHI_CI NEWDELHI_DP NEWDELHI_POCI REUNION_LAT REUNION_LON REUNION_TYPE REUNION_WIND REUNION_PRES REUNION_TNUM REUNION_CI REUNION_RMW REUNION_R34_NE REUNION_R34_SE REUNION_R34_SW REUNION_R34_NW REUNION_R50_NE REUNION_R50_SE REUNION_R50_SW REUNION_R50_NW REUNION_R64_NE REUNION_R64_SE REUNION_R64_SW REUNION_R64_NW BOM_LAT BOM_LON BOM_TYPE BOM_WIND BOM_PRES BOM_TNUM BOM_CI BOM_RMW BOM_R34_NE BOM_R34_SE BOM_R34_SW BOM_R34_NW BOM_R50_NE BOM_R50_SE BOM_R50_SW BOM_R50_NW BOM_R64_NE BOM_R64_SE BOM_R64_SW BOM_R64_NW BOM_ROCI BOM_POCI BOM_EYE BOM_POS_METHOD BOM_PRES_METHOD NADI_LAT NADI_LON NADI_CAT NADI_WIND NADI_PRES WELLINGTON_LAT WELLINGTON_LON WELLINGTON_WIND WELLINGTON_PRES DS824_LAT DS824_LON DS824_STAGE DS824_WIND DS824_PRES TD9636_LAT TD9636_LON TD9636_STAGE TD9636_WIND TD9636_PRES TD9635_LAT TD9635_LON TD9635_WIND TD9635_PRES TD9635_ROCI NEUMANN_LAT NEUMANN_LON NEUMANN_CLASS NEUMANN_WIND NEUMANN_PRES MLC_LAT MLC_LON MLC_CLASS MLC_WIND MLC_PRES USA_GUST BOM_GUST BOM_GUST_PER REUNION_GUST REUNION_GUST_PER USA_SEAHGT USA_SEARAD_NE USA_SEARAD_SE USA_SEARAD_SW USA_SEARAD_NW STORM_SPEED STORM_DIR
1975256N18306 1975 94 NA NA ELOISE 1975-09-13 06:00:00 TS 17.5000 -54.1000 25 hurdat_atl main 1064 1027 O_____________ hurdat_atl AL131975 17.5000 -54.1000 TD 25 -1 10 275
1975256N18306 1975 94 NA NA ELOISE 1975-09-13 09:00:00 TS 17.5503 -54.6475 main 1035 993 P_____________ AL131975 17.5503 -54.6475 TD 25 -1 11 275
1975256N18306 1975 94 NA NA ELOISE 1975-09-13 12:00:00 TS 17.6000 -55.2000 25 1009 hurdat_atl main 993 960 O_____________ hurdat_atl AL131975 17.6000 -55.2000 TD 25 1009 -1 11 275
1975256N18306 1975 94 NA NA ELOISE 1975-09-13 15:00:00 TS 17.6499 -55.7575 main 954 933 P_____________ AL131975 17.6499 -55.7575 TD 25 1009 -1 11 275
1975256N18306 1975 94 NA NA ELOISE 1975-09-13 18:00:00 TS 17.7000 -56.3000 25 1009 hurdat_atl main 933 904 O_____________ hurdat_atl AL131975 17.7000 -56.3000 TD 25 1009 -1 10 276
1975256N18306 1975 94 NA NA ELOISE 1975-09-13 21:00:00 TS 17.7498 -56.8075 main 904 878 P_____________ AL131975 17.7498 -56.8075 TD 25 1009 -1 10 276
1975256N18306 1975 94 NA NA ELOISE 1975-09-14 00:00:00 TS 17.8000 -57.3000 25 1009 hurdat_atl main 878 826 O_____________ hurdat_atl AL131975 17.8000 -57.3000 TD 25 1009 -1 9 276
1975256N18306 1975 94 NA NA ELOISE 1975-09-14 03:00:00 TS 17.8498 -57.7925 main 826 772 P_____________ AL131975 17.8498 -57.7925 TD 25 1009 -1 10 276
1975256N18306 1975 94 NA NA ELOISE 1975-09-14 06:00:00 TS 17.9000 -58.3000 25 1009 hurdat_atl main 772 719 O_____________ hurdat_atl AL131975 17.9000 -58.3000 TD 25 1009 -1 10 276
1975256N18306 1975 94 NA NA ELOISE 1975-09-14 09:00:00 TS 17.9499 -58.8425 main 719 655 P_____________ AL131975 17.9499 -58.8425 TD 25 1009 -1 11 275
1975256N18306 1975 94 NA NA ELOISE 1975-09-14 12:00:00 TS 18.0000 -59.4000 25 1009 hurdat_atl main 655 602 O_____________ hurdat_atl AL131975 18.0000 -59.4000 TD 25 1009 -1 11 275
1975256N18306 1975 94 NA NA ELOISE 1975-09-14 15:00:00 TS 18.0423 -59.9426 main 602 539 P_____________ AL131975 18.0423 -59.9426 TD 25 1009 -1 11 275
1975256N18306 1975 94 NA NA ELOISE 1975-09-14 18:00:00 TS 18.1000 -60.5000 25 1009 hurdat_atl main 539 475 O_____________ hurdat_atl AL131975 18.1000 -60.5000 TD 25 1009 -1 11 278
1975256N18306 1975 94 NA NA ELOISE 1975-09-14 21:00:00 TS 18.1924 -61.1000 main 475 411 P_____________ AL131975 18.1924 -61.1000 TD 25 1009 -1 12 280
1975256N18306 1975 94 NA CS ELOISE 1975-09-15 00:00:00 TS 18.3000 -61.7000 25 1009 hurdat_atl main 411 358 O_____________ hurdat_atl AL131975 18.3000 -61.7000 TD 25 1009 -1 11 280
1975256N18306 1975 94 NA CS ELOISE 1975-09-15 03:00:00 TS 18.3923 -62.2651 main 348 295 P_____________ AL131975 18.3923 -62.2651 TD 25 1009 -1 11 281
1975256N18306 1975 94 NA CS ELOISE 1975-09-15 06:00:00 TS 18.5000 -62.8000 25 1009 hurdat_atl main 295 243 O_____________ hurdat_atl AL131975 18.5000 -62.8000 TD 25 1009 -1 10 285
1975256N18306 1975 94 NA CS ELOISE 1975-09-15 09:00:00 TS 18.6573 -63.3074 main 244 194 P_____________ AL131975 18.6573 -63.3074 TD 27 1008 -1 10 288
1975256N18306 1975 94 NA CS ELOISE 1975-09-15 12:00:00 TS 18.8000 -63.8000 30 1007 hurdat_atl main 194 147 O_____________ hurdat_atl AL131975 18.8000 -63.8000 TD 30 1007 -1 10 282
1975256N18306 1975 94 NA CS ELOISE 1975-09-15 15:00:00 TS 18.8650 -64.3151 main 147 101 P_____________ AL131975 18.8650 -64.3151 TD 30 1007 -1 10 276
1975256N18306 1975 94 NA CS ELOISE 1975-09-15 18:00:00 TS 18.9000 -64.8000 30 1007 hurdat_atl main 101 70 O_____________ hurdat_atl AL131975 18.9000 -64.8000 TD 30 1007 -1 8 275
1975256N18306 1975 94 NA NA ELOISE 1975-09-15 21:00:00 TS 18.9421 -65.1926 main 70 64 P_____________ AL131975 18.9421 -65.1926 TD 32 1007 -1 8 278
1975256N18306 1975 94 NA NA ELOISE 1975-09-16 00:00:00 TS 19.0000 -65.6000 35 1007 hurdat_atl main 67 67 O_____________ hurdat_atl AL131975 19.0000 -65.6000 TS 35 1007 0 9 279
1975256N18306 1975 94 NA NA ELOISE 1975-09-16 03:00:00 TS 19.0927 -66.1499 main 78 78 P_____________ AL131975 19.0927 -66.1499 TS 40 1007 0 11 281
1975256N18306 1975 94 NA NA ELOISE 1975-09-16 06:00:00 TS 19.2000 -66.7000 45 1007 hurdat_atl main 89 89 O_____________ hurdat_atl AL131975 19.2000 -66.7000 TS 45 1007 0 9 283
1975256N18306 1975 94 NA NA ELOISE 1975-09-16 09:00:00 TS 19.3072 -67.1150 main 100 100 P_____________ AL131975 19.3072 -67.1150 TS 50 1004 0 8 285
1975256N18306 1975 94 NA NA ELOISE 1975-09-16 12:00:00 TS 19.4000 -67.5000 55 1002 hurdat_atl main 113 98 O_____________ hurdat_atl AL131975 19.4000 -67.5000 TS 55 1002 0 8 281
1975256N18306 1975 94 NA NA ELOISE 1975-09-16 15:00:00 TS 19.4575 -67.9501 main 100 79 P_____________ AL131975 19.4575 -67.9501 TS 60 1002 0 9 277
1975256N18306 1975 94 NA NA ELOISE 1975-09-16 18:00:00 TS 19.5000 -68.4000 65 1002 hurdat_atl main 79 53 O_____________ hurdat_atl AL131975 19.5000 -68.4000 HU 65 1002 1 8 277
1975256N18306 1975 94 NA NA ELOISE 1975-09-16 21:00:00 TS 19.5498 -68.7925 main 53 35 P_____________ AL131975 19.5498 -68.7925 HU 65 999 1 8 278
1975256N18306 1975 94 NA NA ELOISE 1975-09-17 00:00:00 TS 19.6000 -69.2000 65 997 hurdat_atl main 35 30 O_____________ hurdat_atl AL131975 19.6000 -69.2000 HU 65 997 1 8 277
1975256N18306 1975 94 NA NA ELOISE 1975-09-17 03:00:00 TS 19.6575 -69.6849 main 30 11 P_____________ AL131975 19.6575 -69.6850 HU 62 998 0 9 276
1975256N18306 1975 94 NA NA ELOISE 1975-09-17 06:00:00 TS 19.7000 -70.2000 60 1000 hurdat_atl main 11 0 O_____________ hurdat_atl AL131975 19.7000 -70.2000 TS 60 1000 0 10 273
1975256N18306 1975 94 NA NA ELOISE 1975-09-17 09:00:00 TS 19.6999 -70.7001 main 0 0 P_____________ AL131975 19.6999 -70.7001 TS 57 1000 0 9 270
1975256N18306 1975 94 NA NA ELOISE 1975-09-17 12:00:00 TS 19.7000 -71.2000 55 1000 hurdat_atl main 0 0 O_____________ hurdat_atl AL131975 19.7000 -71.2000 TS 55 1000 0 9 273
1975256N18306 1975 94 NA NA ELOISE 1975-09-17 15:00:00 TS 19.7423 -71.6925 main 0 0 P_____________ AL131975 19.7423 -71.6925 TS 52 1000 0 9 276
1975256N18306 1975 94 NA NA ELOISE 1975-09-17 18:00:00 TS 19.8000 -72.2000 50 1000 hurdat_atl main 11 0 O_____________ hurdat_atl AL131975 19.8000 -72.2000 TS 50 1000 0 10 277
1975256N18306 1975 94 NA NA ELOISE 1975-09-17 21:00:00 TS 19.8573 -72.7350 main 0 0 P_____________ AL131975 19.8573 -72.7350 TS 47 1000 0 10 276
1975256N18306 1975 94 NA NA ELOISE 1975-09-18 00:00:00 TS 19.9000 -73.3000 45 1000 hurdat_atl main 11 11 O_____________ hurdat_atl AL131975 19.9000 -73.3000 TS 45 1000 0 11 273
1975256N18306 1975 94 NA NA ELOISE 1975-09-18 03:00:00 TS 19.9074 -73.8926 main 39 22 P_____________ AL131975 19.9074 -73.8926 TS 45 1000 0 11 270
1975256N18306 1975 94 NA CS ELOISE 1975-09-18 06:00:00 TS 19.9000 -74.5000 45 1000 hurdat_atl main 22 0 O_____________ hurdat_atl AL131975 19.9000 -74.5000 TS 45 1000 0 11 269
1975256N18306 1975 94 NA CS ELOISE 1975-09-18 09:00:00 TS 19.8922 -75.0926 main 0 0 P_____________ AL131975 19.8922 -75.0926 TS 42 1000 0 11 270
1975256N18306 1975 94 NA CS ELOISE 1975-09-18 12:00:00 TS 19.9000 -75.7000 40 1000 hurdat_atl main 10 10 O_____________ hurdat_atl AL131975 19.9000 -75.7000 TS 40 1000 0 12 273
1975256N18306 1975 94 NA CS ELOISE 1975-09-18 15:00:00 TS 19.9499 -76.3499 main 11 0 P_____________ AL131975 19.9499 -76.3499 TS 40 1000 0 12 275
1975256N18306 1975 94 NA NA ELOISE 1975-09-18 18:00:00 TS 20.0000 -77.0000 40 1000 hurdat_atl main 0 0 O_____________ hurdat_atl AL131975 20.0000 -77.0000 TS 40 1000 0 12 273
1975256N18306 1975 94 NA CS ELOISE 1975-09-18 21:00:00 TS 20.0149 -77.6300 main 0 0 P_____________ AL131975 20.0149 -77.6300 TS 37 1000 0 11 270
1975256N18306 1975 94 NA CS ELOISE 1975-09-19 00:00:00 TS 20.0000 -78.2000 35 1000 hurdat_atl main 56 56 O_____________ hurdat_atl AL131975 20.0000 -78.2000 TS 35 1000 0 10 266
1975256N18306 1975 94 NA CS ELOISE 1975-09-19 03:00:00 TS 19.9498 -78.6876 main 105 105 P_____________ AL131975 19.9498 -78.6876 TS 35 1000 0 9 263
1975256N18306 1975 94 NA CS ELOISE 1975-09-19 06:00:00 TS 19.9000 -79.1000 35 1000 hurdat_atl main 137 137 O_____________ hurdat_atl AL131975 19.9000 -79.1000 TS 35 1000 0 7 266
1975256N18306 1975 94 NA CS ELOISE 1975-09-19 09:00:00 TS 19.8996 -79.4274 main 154 154 P_____________ AL131975 19.8996 -79.4274 TS 35 1000 0 7 270
1975256N18306 1975 94 NA CS ELOISE 1975-09-19 12:00:00 TS 19.9000 -79.8000 35 1000 hurdat_atl main 182 182 O_____________ hurdat_atl AL131975 19.9000 -79.8000 TS 35 1000 0 9 267
1975256N18306 1975 94 NA CS ELOISE 1975-09-19 15:00:00 TS 19.8501 -80.3627 main 205 205 P_____________ AL131975 19.8501 -80.3627 TS 35 1000 0 11 265
1975256N18306 1975 94 NA CS ELOISE 1975-09-19 18:00:00 TS 19.8000 -81.0000 35 1000 hurdat_atl main 236 218 O_____________ hurdat_atl AL131975 19.8000 -81.0000 TS 35 1000 0 12 267
1975256N18306 1975 94 NA CS ELOISE 1975-09-19 21:00:00 TS 19.7923 -81.5999 main 218 189 P_____________ AL131975 19.7923 -81.5999 TS 35 1000 0 11 270
1975256N18306 1975 94 NA CS ELOISE 1975-09-20 00:00:00 TS 19.8000 -82.2000 35 1000 hurdat_atl main 189 178 O_____________ hurdat_atl AL131975 19.8000 -82.2000 TS 35 1000 0 11 270
1975256N18306 1975 94 NA CS ELOISE 1975-09-20 03:00:00 TS 19.7923 -82.8001 main 178 178 P_____________ AL131975 19.7923 -82.8001 TS 35 1000 0 11 270
1975256N18306 1975 94 NA CS ELOISE 1975-09-20 06:00:00 TS 19.8000 -83.4000 35 1000 hurdat_atl main 189 189 O_____________ hurdat_atl AL131975 19.8000 -83.4000 TS 35 1000 0 12 272
1975256N18306 1975 94 NA CS ELOISE 1975-09-20 09:00:00 TS 19.8425 -84.0224 main 216 212 P_____________ AL131975 19.8425 -84.0224 TS 35 1003 0 11 275
1975256N18306 1975 94 NA CS ELOISE 1975-09-20 12:00:00 TS 19.9000 -84.6000 35 1006 hurdat_atl main 212 212 O_____________ hurdat_atl AL131975 19.9000 -84.6000 TS 35 1006 0 10 276
1975256N18306 1975 94 NA CS ELOISE 1975-09-20 15:00:00 TS 19.9422 -85.0726 main 212 171 P_____________ AL131975 19.9422 -85.0726 TS 35 1006 0 9 277
1975256N18306 1975 94 NA CS ELOISE 1975-09-20 18:00:00 TS 20.0000 -85.5000 35 1006 hurdat_atl main 171 130 O_____________ hurdat_atl AL131975 20.0000 -85.5000 TS 35 1006 0 8 278
1975256N18306 1975 94 NA CS ELOISE 1975-09-20 21:00:00 TS 20.0625 -85.9652 main 122 84 P_____________ AL131975 20.0625 -85.9652 TS 37 1003 0 9 283
1975256N18306 1975 94 NA CS ELOISE 1975-09-21 00:00:00 TS 20.2000 -86.4000 40 1001 hurdat_atl main 84 39 O_____________ hurdat_atl AL131975 20.2000 -86.4000 TS 40 1001 0 9 298
1975256N18306 1975 94 NA CS ELOISE 1975-09-21 03:00:00 TS 20.4698 -86.7650 main 35 0 P_____________ AL131975 20.4698 -86.7650 TS 42 1001 0 9 312
1975256N18306 1975 94 NA NA ELOISE 1975-09-21 06:00:00 TS 20.8000 -87.1000 45 1001 hurdat_atl main 0 0 O_____________ hurdat_atl AL131975 20.8000 -87.1000 TS 45 1001 0 9 313
1975256N18306 1975 94 NA NA ELOISE 1975-09-21 09:00:00 TS 21.0699 -87.4504 main 0 0 P_____________ AL131975 21.0699 -87.4504 TS 47 1001 0 9 313
1975256N18306 1975 94 NA NA ELOISE 1975-09-21 12:00:00 TS 21.4000 -87.8000 50 1001 hurdat_atl main 0 0 O_____________ hurdat_atl AL131975 21.4000 -87.8000 TS 50 1001 0 10 319
1975256N18306 1975 94 NA GM ELOISE 1975-09-21 15:00:00 TS 21.8551 -88.1724 main 44 44 P_____________ AL131975 21.8551 -88.1724 TS 52 998 0 12 327
1975256N18306 1975 94 NA GM ELOISE 1975-09-21 18:00:00 TS 22.4000 -88.5000 55 995 hurdat_atl main 100 100 O_____________ hurdat_atl AL131975 22.4000 -88.5000 TS 55 995 0 12 336
1975256N18306 1975 94 NA GM ELOISE 1975-09-21 21:00:00 TS 22.9848 -88.7155 main 168 168 P_____________ AL131975 22.9848 -88.7155 TS 57 995 0 13 343
1975256N18306 1975 94 NA GM ELOISE 1975-09-22 00:00:00 TS 23.6000 -88.9000 60 995 hurdat_atl main 236 236 O_____________ hurdat_atl AL131975 23.6000 -88.9000 TS 60 995 0 13 341
1975256N18306 1975 94 NA GM ELOISE 1975-09-22 03:00:00 TS 24.2151 -89.1722 main 308 308 P_____________ AL131975 24.2151 -89.1722 TS 62 994 0 13 339
1975256N18306 1975 94 NA GM ELOISE 1975-09-22 06:00:00 TS 24.8000 -89.4000 65 993 hurdat_atl main 377 377 O_____________ hurdat_atl AL131975 24.8000 -89.4000 HU 65 993 1 12 345
1975256N18306 1975 94 NA GM ELOISE 1975-09-22 09:00:00 TS 25.3374 -89.4953 main 415 359 P_____________ AL131975 25.3374 -89.4953 HU 70 989 1 10 355
1975256N18306 1975 94 NA GM ELOISE 1975-09-22 12:00:00 TS 25.8000 -89.5000 75 986 hurdat_atl main 359 326 O_____________ hurdat_atl AL131975 25.8000 -89.5000 HU 75 986 1 8 0
1975256N18306 1975 94 NA GM ELOISE 1975-09-22 15:00:00 TS 26.1647 -89.5245 main 315 280 P_____________ AL131975 26.1647 -89.5245 HU 80 983 1 7 7
1975256N18306 1975 94 NA GM ELOISE 1975-09-22 18:00:00 TS 26.5000 -89.4000 85 980 hurdat_atl main 280 245 O_____________ hurdat_atl AL131975 26.5000 -89.4000 HU 85 980 2 8 32
1975256N18306 1975 94 NA GM ELOISE 1975-09-22 21:00:00 TS 26.8700 -89.0322 main 234 198 P_____________ AL131975 26.8700 -89.0322 HU 90 974 2 11 45
1975256N18306 1975 94 NA GM ELOISE 1975-09-23 00:00:00 TS 27.3000 -88.5000 95 968 hurdat_atl main 198 180 O_____________ hurdat_atl AL131975 27.3000 -88.5000 HU 95 968 2 14 48
1975256N18306 1975 94 NA GM ELOISE 1975-09-23 03:00:00 TS 27.7752 -87.9069 main 178 176 P_____________ AL131975 27.7752 -87.9069 HU 100 963 3 15 44
1975256N18306 1975 94 NA GM ELOISE 1975-09-23 06:00:00 TS 28.4000 -87.3000 105 958 hurdat_atl main 183 139 O_____________ hurdat_atl AL131975 28.4000 -87.3000 HU 105 958 3 17 36
1975256N18306 1975 94 NA GM ELOISE 1975-09-23 09:00:00 TS 29.1726 -86.7546 main 128 29 P_____________ AL131975 29.1726 -86.7546 HU 107 956 3 20 26
1975256N18306 1975 94 NA GM ELOISE 1975-09-23 12:00:00 TS 30.2000 -86.3000 110 955 hurdat_atl main 22 0 O_____________ hurdat_atl AL131975 30.2000 -86.3000 HU 110 955 3 25 15
1975256N18306 1975 94 NA NA ELOISE 1975-09-23 15:00:00 TS 31.5467 -86.0264 main 0 0 P_____________ AL131975 31.5467 -86.0264 HU 82 968 1 29 10
1975256N18306 1975 94 NA NA ELOISE 1975-09-23 18:00:00 TS 33.0000 -85.7000 55 982 hurdat_atl main 0 0 O_____________ hurdat_atl AL131975 33.0000 -85.7000 TS 55 982 0 30 17
1975256N18306 1975 94 NA NA ELOISE 1975-09-23 21:00:00 TS 34.3859 -85.0194 main 0 0 P_____________ AL131975 34.3859 -85.0194 TS 42 990 0 28 25
1975256N18306 1975 94 NA NA ELOISE 1975-09-24 00:00:00 TS 35.5000 -84.3000 30 999 hurdat_atl main 0 0 O_____________ hurdat_atl AL131975 35.5000 -84.3000 TD 30 999 -1 20 28
1975256N18306 1975 94 NA NA ELOISE 1975-09-24 03:00:00 TS 36.1490 -83.8666 main 0 0 P_____________ AL131975 36.1490 -83.8666 TD 25 1001 -1 12 33
1975256N18306 1975 94 NA NA ELOISE 1975-09-24 06:00:00 ET 36.5000 -83.5000 20 1004 hurdat_atl main 0 0 O_____________ hurdat_atl AL131975 36.5000 -83.5000 EX 20 1004 -4 9 47
1975256N18306 1975 94 NA NA ELOISE 1975-09-24 09:00:00 ET 36.7875 -83.0142 main 0 0 P_____________ AL131975 36.7875 -83.0142 EX 20 1004 -4 9 58
1975256N18306 1975 94 NA NA ELOISE 1975-09-24 12:00:00 ET 37.0000 -82.5000 20 1004 hurdat_atl main 0 0 O_____________ hurdat_atl AL131975 37.0000 -82.5000 EX 20 1004 -4 9 61
1975256N18306 1975 94 NA NA ELOISE 1975-09-24 15:00:00 ET 37.2378 -81.9960 main 0 0 P_____________ AL131975 37.2378 -81.9960 EX 20 1004 -4 9 58
1975256N18306 1975 94 NA NA ELOISE 1975-09-24 18:00:00 ET 37.5000 -81.5000 20 1004 hurdat_atl main 0 O_____________ hurdat_atl AL131975 37.5000 -81.5000 EX 20 1004 -4 9 56

IBTrACS Databaseについて

本データベースは、米国NOAAが公開する1842年以降の世界の熱帯低気圧のベストトラックデータアーカイブInternational Best Track Archive for Climate Stewardship (IBTrACS)を、ウェブで閲覧しやすい形式に変換したものです。

最終更新日:2021-11-26